Terminal Aerodrome Forecast
Issued by NWS

Home | Current Version | Previous Version | Text Only | Print | Product List | Glossary Off
Versions: 1 2 3 4 5 6 7 8 9 10 11 12 13 14 15 16 17 18 19 20 21 22 23 24 25 26 27 28 29 30 31 32

304
FTUS43 KGRB 262328
TAFATW
TAF
KATW 262328Z 2700/2724 14007KT P6SM SCT070 BKN200
     FM270600 21004KT 5SM BR SCT003 SCT080
      TEMPO 2708/2712 2SM BR BKN003
     FM271300 22005KT P6SM SCT015 SCT100
     FM271500 22009KT P6SM SCT030 SCT100
     FM272200 23008KT P6SM VCSH SCT035 BKN080=

USA.gov is the U.S. government's official web portal to all federal, state and local government web resources and services.